Detalhes do Voo

Voltar

 DETALHES DO VÔO

Piloto: GLD879 Adalberto L. Aeronave: Austflight Distância: 143NM
Origem: SIAM Destino: SDPU Duração: 2.41
Validação: Validado Tipo: Charter Matrícula: PT-GLD
ZFW: 768 Block Fuel/Init FOB 18/0 Combustível em Voo 18
Passageiros: 1 Carga: 20 Alternativo: SDCU
Hora da Decolagem: 2036 Velocidade de Cruzeiro: 90 Nível de Voo: 015
Regra Visual: VFR ICAO da Aeronave: SAVG Unidade de Peso: Kg
Data: 27/04/2024 Observação: GOLD ACARS Rede: IVAO
Acidentou?: Não Comentários do Validador: Pontuação do Voo 70.3395

 ROTA

ROTA REA 2259S04201W 2247S04155W DCT
REMARKS OPR/GOLD VIRTUAL AIRLINES PER/A RMK/FROM SIAM RMK/PIC GLD879 RMK/REA FOXTROT RMK/BRULTRALIGHT24 DOF/240427

 PENALIDADES DO VOO

Para entender como cada item é pontuado, consulte as regras de avaliação.

Nenhuma penalidade registrada para este voo.

 ANÁLISE DO POUSO

Vento durante o pouso: 269º/1 kt Proa durante o pouso: 55
V/S do Pouso: -121 ft/min IAS do Pouso: 37 kt
Força G no pouso: 1.024 G Bank no pouso: -2.65
Pitch no Pouso 4.77 Flaps no Pouso 0
Nav Lights OFF Landing Lights OFF
Beacon Lights OFF Strobe Lights OFF

 MAPA DO VOO

 PERFIL VERTICAL DO VOO

 EVENTOS PRINCIPAIS DO VOO

DATAEVENTOIASALTITUDE
2024-04-27 20:36:51 GOLD ACARS VERSION 3.3.0.500
2024-04-27 20:36:51 BOARDING060
2024-04-27 20:36:51 STARTING ENGINE 1060
2024-04-27 20:36:53 DEPARTURE IN A WRONG AIRPORT060
2024-04-27 20:36:53 LITTLENAVMAP ON060
2024-04-27 20:36:53 BEACON LIGHT OFF & ENGINE ON060
2024-04-27 20:39:47 AP ENGAGED060
2024-04-27 20:40:25 AP DISENGAGED052
2024-04-27 20:40:26 AP ENGAGED051
2024-04-27 20:40:42 AP DISENGAGED051
2024-04-27 20:41:05 TAXI TO THE RWY351
2024-04-27 20:41:05 TAXING WITH TAXI LIGHTS OFF351
2024-04-27 20:43:31 CLIMBING60130
2024-04-27 20:43:31 LIGHTS OFF BELOW 10000 ft60130
2024-04-27 20:43:37 CRUISE62174
2024-04-27 20:43:39 CLIMBING61187
2024-04-27 20:44:19 CRUISE41597
2024-04-27 20:44:49 CLIMBING41780
2024-04-27 20:45:39 CRUISE401231
2024-04-27 20:50:16 CLIMBING701710
2024-04-27 20:50:23 CRUISE671772
2024-04-27 21:01:16 CLIMBING672462
2024-04-27 21:01:58 CRUISE642880
2024-04-27 21:02:15 CLIMBING652952
2024-04-27 21:02:22 CRUISE633004
2024-04-27 21:20:26 DESCEND753095
2024-04-27 21:21:26 CLIMBING641534
2024-04-27 21:22:03 AP ENGAGED641795
2024-04-27 21:22:37 CRUISE622042
2024-04-27 21:22:41 AP DISENGAGED642058
2024-04-27 21:22:46 CLIMBING632094
2024-04-27 21:22:48 AP ENGAGED632106
2024-04-27 21:23:00 CRUISE622198
2024-04-27 21:23:09 CLIMBING632244
2024-04-27 21:23:15 CRUISE622293
2024-04-27 21:23:25 CLIMBING642339
2024-04-27 21:23:30 CRUISE632380
2024-04-27 21:23:40 CLIMBING652416
2024-04-27 21:23:42 CRUISE652428
2024-04-27 21:24:43 REFUEL652483
2024-04-27 21:34:44 AP DISENGAGED631709
2024-04-27 21:35:43 CLIMBING621751
2024-04-27 21:35:50 CRUISE521827
2024-04-27 21:51:02 AP ENGAGED681436
2024-04-27 21:51:14 LANDING681425
2024-04-27 21:51:19 CLIMBING671402
2024-04-27 21:51:25 CRUISE601455
2024-04-27 22:40:54 AP DISENGAGED671003
2024-04-27 22:43:12 LANDING701060
2024-04-27 22:46:48 LANDED - VS: -121 ft/min 37-1
2024-04-27 22:47:03 TAXI TO THE GATE29-6
2024-04-27 22:47:14 AT THE GATE25-5
2024-04-27 22:49:18 STOPPING ENGINE 10-3
2024-04-27 23:01:30 LANDED NOT IN THE PLANNED AIRPORT [SSBF] - [lat: -22,7675364779281] - [long: -41,9617501478788]0-3
2024-04-27 23:01:31 FLIGHT FINISHED0-3

 DADOS DO ACARS

DATA IAS GS ALTITUDE COMBUSTÍVEL USADO OAT FASE DO VOO
2024-04-27 20:38:18 0 0 60 0 14 BOARDING
2024-04-27 20:39:18 0 0 60 0 14 BOARDING
2024-04-27 20:40:19 0 0 60 0 14 BOARDING
2024-04-27 20:41:20 7 7 53 0 14 BOARDING
2024-04-27 20:42:20 5 6 57 0 14 TAXI TO THE RWY
2024-04-27 20:43:21 56 56 74 0 14 TAXI TO THE RWY
2024-04-27 20:44:22 42 43 610 0 13 TAXI TO THE RWY
2024-04-27 20:45:22 41 41 1074 0 12 CRUISE
2024-04-27 20:46:23 42 42 1458 1 12 CLIMBING
2024-04-27 20:47:24 45 46 1737 1 11 CRUISE
2024-04-27 20:48:24 63 65 1857 1 11 CRUISE
2024-04-27 20:49:26 67 70 1695 1 11 CRUISE
2024-04-27 20:50:26 69 74 1780 2 11 CRUISE
2024-04-27 20:51:27 75 79 1545 2 11 CRUISE
2024-04-27 20:52:28 75 78 1351 2 12 CRUISE
2024-04-27 20:53:28 70 73 1196 2 12 CRUISE
2024-04-27 20:54:29 67 70 1182 3 12 CRUISE
2024-04-27 20:55:29 66 69 1320 3 12 CRUISE
2024-04-27 20:56:30 65 69 1552 3 11 CRUISE
2024-04-27 20:57:30 65 69 1781 4 11 CRUISE
2024-04-27 20:58:31 65 69 1979 4 11 CRUISE
2024-04-27 20:59:31 65 68 2103 4 10 CRUISE
2024-04-27 21:00:32 65 68 2296 4 10 CRUISE
2024-04-27 21:01:33 67 67 2640 5 9 CRUISE
2024-04-27 21:02:33 65 66 3031 5 8 CLIMBING
2024-04-27 21:03:34 65 68 3179 5 8 CRUISE
2024-04-27 21:04:34 65 70 3325 5 8 CRUISE
2024-04-27 21:05:35 65 68 3460 6 8 CRUISE
2024-04-27 21:06:35 65 67 3581 6 7 CRUISE
2024-04-27 21:07:36 65 70 3701 6 7 CRUISE
2024-04-27 21:08:36 65 68 3807 6 7 CRUISE
2024-04-27 21:09:37 65 70 3907 7 7 CRUISE
2024-04-27 21:10:37 65 69 3990 7 7 CRUISE
2024-04-27 21:11:38 66 72 4060 7 6 CRUISE
2024-04-27 21:12:39 66 70 4107 8 6 CRUISE
2024-04-27 21:13:39 67 69 4130 8 6 CRUISE
2024-04-27 21:14:40 68 70 4117 8 6 CRUISE
2024-04-27 21:15:40 69 72 4063 8 6 CRUISE
2024-04-27 21:16:41 70 76 3962 9 7 CRUISE
2024-04-27 21:17:41 72 76 3811 9 7 CRUISE
2024-04-27 21:18:42 73 77 3601 9 7 CRUISE
2024-04-27 21:19:42 75 77 3333 9 8 CRUISE
2024-04-27 21:20:43 118 115 2065 10 11 CRUISE
2024-04-27 21:21:43 63 67 1671 10 11 DESCEND
2024-04-27 21:22:44 64 68 2066 10 10 CLIMBING
2024-04-27 21:23:44 67 72 2433 11 10 CRUISE
2024-04-27 21:24:45 65 70 2485 -17 10 CRUISE
2024-04-27 21:25:45 69 74 2389 -16 10 CRUISE
2024-04-27 21:26:46 73 77 2105 -16 10 CRUISE
2024-04-27 21:27:46 73 77 1759 -16 11 CRUISE
2024-04-27 21:28:47 64 67 1650 -16 11 CRUISE
2024-04-27 21:29:47 59 62 1752 -15 11 CRUISE
2024-04-27 21:30:48 64 67 1801 -15 11 CRUISE
2024-04-27 21:31:48 66 70 1808 -15 11 CRUISE
2024-04-27 21:32:49 71 75 1592 -15 11 CRUISE
2024-04-27 21:33:49 64 67 1603 -14 11 CRUISE
2024-04-27 21:34:50 63 67 1716 -14 11 CRUISE
2024-04-27 21:35:50 52 56 1827 -14 11 CRUISE
2024-04-27 21:36:51 68 72 1707 -14 11 CRUISE
2024-04-27 21:37:51 67 71 1690 -13 11 CRUISE
2024-04-27 21:38:52 67 71 1661 -13 11 CRUISE
2024-04-27 21:39:52 68 71 1650 -13 11 CRUISE
2024-04-27 21:40:53 67 71 1631 -13 11 CRUISE
2024-04-27 21:41:53 68 71 1620 -12 11 CRUISE
2024-04-27 21:42:54 68 71 1606 -12 11 CRUISE
2024-04-27 21:43:54 69 73 1570 -12 11 CRUISE
2024-04-27 21:44:55 71 74 1541 -12 11 CRUISE
2024-04-27 21:45:56 67 71 1483 -11 12 CRUISE
2024-04-27 21:46:56 67 71 1489 -11 12 CRUISE
2024-04-27 21:47:57 68 71 1495 -11 12 CRUISE
2024-04-27 21:48:57 67 71 1501 -11 12 CRUISE
2024-04-27 21:49:57 68 71 1506 -10 12 CRUISE
2024-04-27 21:50:58 69 73 1437 -10 12 CRUISE
2024-04-27 21:51:58 60 63 1560 -10 11 CRUISE
2024-04-27 21:52:59 68 71 1601 -10 11 CRUISE
2024-04-27 21:54:00 68 72 1599 -9 11 CRUISE
2024-04-27 21:55:00 68 72 1598 -9 11 CRUISE
2024-04-27 21:56:01 68 72 1600 -9 11 CRUISE
2024-04-27 21:57:01 68 72 1599 -9 11 CRUISE
2024-04-27 21:58:02 68 72 1598 -8 11 CRUISE
2024-04-27 21:59:02 68 72 1597 -8 11 CRUISE
2024-04-27 22:00:03 68 72 1599 -8 11 CRUISE
2024-04-27 22:01:03 68 72 1600 -7 11 CRUISE
2024-04-27 22:02:04 68 72 1601 -7 11 CRUISE
2024-04-27 22:03:04 69 72 1601 -7 11 CRUISE
2024-04-27 22:04:05 68 72 1598 -7 11 CRUISE
2024-04-27 22:05:05 68 72 1599 -6 11 CRUISE
2024-04-27 22:06:06 69 72 1601 -6 11 CRUISE
2024-04-27 22:07:06 69 72 1600 -6 11 CRUISE
2024-04-27 22:08:06 68 72 1599 -6 11 CRUISE
2024-04-27 22:09:07 68 72 1599 -5 11 CRUISE
2024-04-27 22:10:08 69 72 1601 -5 11 CRUISE
2024-04-27 22:11:08 69 72 1601 -5 11 CRUISE
2024-04-27 22:12:09 67 71 1600 -5 16 CRUISE
2024-04-27 22:13:09 53 50 1541 -4 25 CRUISE
2024-04-27 22:14:09 66 70 1613 -4 11 CRUISE
2024-04-27 22:15:10 69 72 1605 -4 11 CRUISE
2024-04-27 22:16:11 69 72 1606 -4 11 CRUISE
2024-04-27 22:17:11 69 72 1604 -3 11 CRUISE
2024-04-27 22:18:11 69 73 1606 -3 11 CRUISE
2024-04-27 22:19:12 69 72 1602 -3 11 CRUISE
2024-04-27 22:20:13 69 72 1601 -3 11 CRUISE
2024-04-27 22:21:13 68 72 1601 -2 11 CRUISE
2024-04-27 22:22:14 69 73 1604 -2 11 CRUISE
2024-04-27 22:23:14 69 72 1600 -2 11 CRUISE
2024-04-27 22:24:15 68 72 1599 -2 11 CRUISE
2024-04-27 22:25:16 68 72 1599 -2 11 CRUISE
2024-04-27 22:26:16 69 72 1602 -2 11 CRUISE
2024-04-27 22:27:16 69 72 1602 -2 11 CRUISE
2024-04-27 22:28:17 69 73 1602 -1 11 CRUISE
2024-04-27 22:29:18 68 72 1598 -1 11 CRUISE
2024-04-27 22:30:18 70 72 1614 -1 11 CRUISE
2024-04-27 22:31:19 68 71 1596 -1 12 CRUISE
2024-04-27 22:32:19 68 70 1599 0 11 CRUISE
2024-04-27 22:33:20 67 70 1600 0 11 CRUISE
2024-04-27 22:34:20 71 74 1465 0 12 CRUISE
2024-04-27 22:35:21 70 73 1366 0 12 CRUISE
2024-04-27 22:36:21 70 73 1263 0 12 CRUISE
2024-04-27 22:37:22 70 72 1159 0 12 CRUISE
2024-04-27 22:38:22 71 73 1057 0 12 CRUISE
2024-04-27 22:39:23 68 70 999 0 12 CRUISE
2024-04-27 22:40:23 68 70 1001 1 12 CRUISE
2024-04-27 22:41:24 68 68 1036 1 12 CRUISE
2024-04-27 22:42:24 64 64 1110 1 12 CRUISE
2024-04-27 22:43:25 68 67 998 1 13 CRUISE
2024-04-27 22:44:25 57 56 559 1 13 LANDING
2024-04-27 22:45:26 51 50 445 2 14 LANDING
2024-04-27 22:46:26 47 48 166 2 14 LANDING
2024-04-27 22:47:27 21 22 -6 2 14 LANDING
2024-04-27 22:48:27 7 6 -3 2 14 AT THE GATE
2024-04-27 22:49:28 0 0 -3 2 14 AT THE GATE
2024-04-27 22:50:28 0 0 -3 2 14 AT THE GATE
2024-04-27 22:51:29 0 0 -3 2 14 AT THE GATE
2024-04-27 22:52:29 0 0 -3 2 14 AT THE GATE
2024-04-27 22:53:30 0 0 -3 2 14 AT THE GATE
2024-04-27 22:54:30 0 0 -3 2 14 AT THE GATE
2024-04-27 22:55:31 0 0 -3 2 14 AT THE GATE
2024-04-27 22:56:31 0 0 -3 2 14 AT THE GATE
2024-04-27 22:57:32 0 0 -3 2 14 AT THE GATE
2024-04-27 22:58:32 0 0 -3 2 14 AT THE GATE
2024-04-27 22:59:33 0 0 -3 2 14 AT THE GATE
2024-04-27 23:00:33 0 0 -3 2 14 AT THE GATE